createdAt,value
2023-03-05T00:02:43.480Z,18.05
2023-03-05T00:12:44.680Z,17.92
2023-03-05T00:22:45.885Z,18.15
2023-03-05T00:32:47.087Z,18.38
2023-03-05T00:42:48.345Z,16.33
2023-03-05T00:52:49.587Z,19.90
2023-03-05T01:02:50.826Z,17.33
2023-03-05T01:12:52.008Z,18.30
2023-03-05T01:22:53.900Z,18.40
2023-03-05T01:32:55.160Z,18.60
2023-03-05T01:42:56.560Z,19.77
2023-03-05T01:52:57.775Z,18.88
2023-03-05T02:02:59.005Z,19.90
2023-03-05T02:13:00.211Z,18.23
2023-03-05T02:23:01.411Z,19.25
2023-03-05T02:33:02.642Z,19.73
2023-03-05T02:43:03.864Z,19.40
2023-03-05T02:53:05.119Z,18.77
2023-03-05T03:03:06.375Z,18.05
2023-03-05T03:13:07.640Z,20.67
2023-03-05T03:23:08.863Z,18.88
2023-03-05T03:33:10.073Z,20.75
2023-03-05T03:43:11.536Z,20.73
2023-03-05T03:53:14.335Z,18.88
2023-03-05T04:03:15.600Z,18.83
2023-03-05T04:13:16.862Z,18.15
2023-03-05T04:23:18.206Z,19.48
2023-03-05T04:33:19.849Z,19.10
2023-03-05T04:43:21.300Z,18.27
2023-03-05T04:53:22.744Z,19.45
2023-03-05T05:03:24.017Z,17.98
2023-03-05T05:13:25.616Z,19.58
2023-03-05T05:23:26.876Z,19.98
2023-03-05T05:33:28.160Z,18.73
2023-03-05T05:43:29.466Z,17.85
2023-03-05T05:53:30.781Z,18.98
2023-03-05T06:03:32.161Z,19.17
2023-03-05T06:13:33.485Z,18.67
2023-03-05T06:23:34.801Z,18.38
2023-03-05T06:33:36.068Z,20.27
2023-03-05T06:43:38.764Z,20.00
2023-03-05T06:53:40.057Z,18.38
2023-03-05T07:03:41.380Z,19.35
2023-03-05T07:13:43.497Z,19.42
2023-03-05T07:23:44.858Z,19.92
2023-03-05T07:33:46.156Z,20.63
2023-03-05T07:43:47.595Z,20.85
2023-03-05T07:53:48.873Z,18.50
2023-03-05T08:03:50.131Z,17.67
2023-03-05T08:13:51.665Z,17.08
2023-03-05T08:23:53.787Z,17.10
2023-03-05T08:33:58.061Z,20.25
2023-03-05T08:44:01.491Z,17.00
2023-03-05T08:54:06.771Z,16.85
2023-03-05T09:04:08.095Z,15.73
2023-03-05T09:14:09.386Z,13.95
2023-03-05T09:24:11.738Z,14.90
2023-03-05T09:34:13.041Z,12.93
2023-03-05T09:44:14.324Z,12.40
2023-03-05T09:54:15.570Z,13.35
2023-03-05T10:04:16.835Z,13.02
2023-03-05T10:14:18.047Z,12.18
2023-03-05T10:24:19.436Z,15.30
2023-03-05T10:34:22.495Z,13.13
2023-03-05T10:44:24.053Z,11.68
2023-03-05T10:54:25.581Z,11.18
2023-03-05T11:04:26.872Z,10.45
2023-03-05T11:14:31.320Z,12.30
2023-03-05T11:24:33.702Z,12.50
2023-03-05T11:34:36.018Z,10.55
2023-03-05T11:44:37.532Z,11.60
2023-03-05T11:54:38.744Z,11.18
2023-03-05T12:04:39.971Z,11.00
2023-03-05T12:14:41.239Z,10.98
2023-03-05T12:24:43.119Z,10.57
2023-03-05T12:34:44.393Z,9.70
2023-03-05T12:44:45.741Z,8.95
2023-03-05T12:54:46.958Z,8.10
2023-03-05T13:04:48.353Z,8.73
2023-03-05T13:14:49.590Z,6.43
2023-03-05T13:24:50.801Z,6.57
2023-03-05T13:34:52.033Z,5.68
2023-03-05T13:44:53.301Z,5.30
2023-03-05T13:54:55.655Z,6.07
2023-03-05T14:04:56.893Z,5.10
2023-03-05T14:14:59.399Z,4.80
2023-03-05T14:25:01.539Z,5.18
2023-03-05T14:35:03.631Z,4.63
2023-03-05T14:45:05.031Z,4.82
2023-03-05T14:55:06.793Z,4.30
2023-03-05T15:15:10.138Z,4.38
2023-03-05T15:25:11.418Z,4.57
2023-03-05T15:35:12.610Z,4.50
2023-03-05T15:45:14.065Z,3.70
2023-03-05T15:55:15.386Z,3.63
2023-03-05T16:05:16.617Z,3.70
2023-03-05T16:15:17.878Z,4.07
2023-03-05T16:25:19.142Z,3.83
2023-03-05T16:35:20.432Z,3.78
2023-03-05T16:45:21.966Z,3.42
2023-03-05T16:55:23.176Z,3.80
2023-03-05T17:05:28.081Z,4.07
2023-03-05T17:15:29.386Z,3.95
2023-03-05T17:25:31.677Z,7.40
2023-03-05T17:35:33.959Z,7.57
2023-03-05T17:45:35.601Z,10.73
2023-03-05T17:55:36.884Z,7.28
2023-03-05T18:05:38.148Z,6.25
2023-03-05T18:15:47.180Z,6.70
2023-03-05T18:25:48.505Z,9.88
2023-03-05T18:35:52.073Z,9.43
2023-03-05T18:45:53.682Z,12.97
2023-03-05T18:55:55.022Z,14.02
2023-03-05T19:05:56.242Z,8.18
2023-03-05T19:15:57.505Z,8.65
2023-03-05T19:25:58.769Z,9.57
2023-03-05T19:36:00.193Z,11.07
2023-03-05T19:46:01.870Z,8.13
2023-03-05T19:56:03.511Z,7.85
2023-03-05T20:06:05.267Z,8.57
2023-03-05T20:16:06.598Z,8.23
2023-03-05T20:26:07.921Z,11.75
2023-03-05T20:36:09.192Z,9.15
2023-03-05T20:46:10.666Z,7.53
2023-03-05T20:56:11.946Z,8.82
2023-03-05T21:06:13.240Z,12.75
2023-03-05T21:16:14.544Z,11.05
2023-03-05T21:26:15.878Z,7.53
2023-03-05T21:36:19.992Z,7.18
2023-03-05T21:46:21.295Z,7.97
2023-03-05T21:56:24.908Z,8.55
2023-03-05T22:06:28.967Z,7.80
2023-03-05T22:16:30.259Z,9.27
2023-03-05T22:26:31.536Z,7.93
2023-03-05T22:36:32.783Z,8.98
2023-03-05T22:46:34.033Z,8.70
2023-03-05T22:56:35.261Z,10.80
2023-03-05T23:06:36.559Z,8.02
2023-03-05T23:16:37.777Z,8.82
2023-03-05T23:26:39.024Z,8.95
2023-03-05T23:36:42.103Z,9.82
2023-03-05T23:46:43.627Z,10.18
2023-03-05T23:56:44.928Z,11.02
